ICAO code: LHPR | IATA code: QGY | AFTN: LHPRZPZX | magyar | deutsch
Weather : 2019-03-23 19:10 (UTC) | Temperature: 10.9 °C | QNH: 1025 hPa | Wind: 1.5 m/s | More
Live ATC LHPR
Live webcam

Győr-Pér Airport Meteor data

Metar:
METAR LHPR 231845Z AUTO 00000KT CAVOK 12/05 Q102


Taf:
TAF LHPR 231715Z 2318/2403 VRB03KT CAVOK


Present weather:
Mist
Date stamp: 2019-03-23 19:10:00 UTC
Air Temp:
10.9 °C
 
Dewpoint:
5.0 °C
 
Rel. Humidity:
67%
 
QNH:
1025.0 hPa
 
Wind speed:
1.5 m/s
Max:
1.5 m/s
Wind direction:
220°
 
Precipitation (1 hour):
0.0 mm
 
Visibility:
5907 m
 
RVR:
>1500 m RWY30
 
1st cloud layer quantity:
0 octa
 
1st cloud layer base:
m


Az adatokat szolgáltatja
az Országos Meteorológiai Szolgálat
Győr-Pér Airport | H 9099 Pér, Repülőtér | Tel: +36/96/559-200 | Fax: +36/96/559-202

ICAO code: LHPR | IATA code: QGY | AFTN: LHPRZPZX


weboldal tervezés: IRQ